sensor_id;sensor_type;location;lat;lon;timestamp;P1;durP1;ratioP1;P2;durP2;ratioP2
15192;SDS011;7697;51.630;7.484;2024-03-23T00:56:47;7.38;;;2.95;;
15192;SDS011;7697;51.630;7.484;2024-03-23T01:01:49;6.80;;;2.60;;
15192;SDS011;7697;51.630;7.484;2024-03-23T01:06:51;6.25;;;2.53;;
15192;SDS011;7697;51.630;7.484;2024-03-23T01:11:54;5.22;;;2.50;;
15192;SDS011;7697;51.630;7.484;2024-03-23T01:16:55;5.32;;;2.40;;
15192;SDS011;7697;51.630;7.484;2024-03-23T01:21:57;7.22;;;2.65;;
15192;SDS011;7697;51.630;7.484;2024-03-23T01:27:00;6.18;;;2.80;;
15192;SDS011;7697;51.630;7.484;2024-03-23T01:32:02;5.03;;;2.50;;
15192;SDS011;7697;51.630;7.484;2024-03-23T01:37:04;4.78;;;2.20;;
15192;SDS011;7697;51.630;7.484;2024-03-23T01:42:08;3.78;;;1.98;;
15192;SDS011;7697;51.630;7.484;2024-03-23T01:47:09;4.13;;;2.20;;
15192;SDS011;7697;51.630;7.484;2024-03-23T01:52:12;3.45;;;1.83;;
15192;SDS011;7697;51.630;7.484;2024-03-23T01:57:15;4.18;;;1.98;;
15192;SDS011;7697;51.630;7.484;2024-03-23T02:02:17;7.43;;;2.40;;
15192;SDS011;7697;51.630;7.484;2024-03-23T02:07:20;4.85;;;2.00;;
15192;SDS011;7697;51.630;7.484;2024-03-23T02:12:23;5.47;;;2.28;;
15192;SDS011;7697;51.630;7.484;2024-03-23T02:17:25;5.20;;;2.35;;
15192;SDS011;7697;51.630;7.484;2024-03-23T02:22:33;3.10;;;2.03;;
15192;SDS011;7697;51.630;7.484;2024-03-23T02:27:41;5.57;;;2.30;;
15192;SDS011;7697;51.630;7.484;2024-03-23T02:32:43;5.63;;;2.55;;
15192;SDS011;7697;51.630;7.484;2024-03-23T02:37:45;4.20;;;2.05;;
15192;SDS011;7697;51.630;7.484;2024-03-23T02:42:49;3.83;;;1.92;;
15192;SDS011;7697;51.630;7.484;2024-03-23T02:47:51;8.05;;;3.17;;
15192;SDS011;7697;51.630;7.484;2024-03-23T02:52:53;5.78;;;2.28;;
15192;SDS011;7697;51.630;7.484;2024-03-23T02:57:57;7.90;;;2.95;;
15192;SDS011;7697;51.630;7.484;2024-03-23T03:03:01;5.50;;;2.55;;
15192;SDS011;7697;51.630;7.484;2024-03-23T03:08:04;7.10;;;2.72;;
15192;SDS011;7697;51.630;7.484;2024-03-23T03:13:10;6.97;;;2.85;;
15192;SDS011;7697;51.630;7.484;2024-03-23T03:18:12;5.30;;;2.47;;
15192;SDS011;7697;51.630;7.484;2024-03-23T03:23:13;4.65;;;2.13;;
15192;SDS011;7697;51.630;7.484;2024-03-23T03:28:21;5.22;;;2.35;;
15192;SDS011;7697;51.630;7.484;2024-03-23T03:33:23;4.43;;;2.42;;
15192;SDS011;7697;51.630;7.484;2024-03-23T03:38:25;7.95;;;2.47;;
15192;SDS011;7697;51.630;7.484;2024-03-23T03:43:28;5.70;;;2.30;;
15192;SDS011;7697;51.630;7.484;2024-03-23T03:48:30;6.38;;;2.20;;
15192;SDS011;7697;51.630;7.484;2024-03-23T03:53:32;4.95;;;2.20;;
15192;SDS011;7697;51.630;7.484;2024-03-23T03:58:35;5.95;;;2.25;;
15192;SDS011;7697;51.630;7.484;2024-03-23T04:03:37;4.97;;;2.20;;
15192;SDS011;7697;51.630;7.484;2024-03-23T04:08:43;5.47;;;2.08;;
15192;SDS011;7697;51.630;7.484;2024-03-23T04:13:46;4.13;;;2.05;;
15192;SDS011;7697;51.630;7.484;2024-03-23T04:18:48;4.93;;;1.92;;
15192;SDS011;7697;51.630;7.484;2024-03-23T04:23:50;3.47;;;1.80;;
15192;SDS011;7697;51.630;7.484;2024-03-23T04:28:53;6.40;;;2.10;;
15192;SDS011;7697;51.630;7.484;2024-03-23T04:33:55;10.95;;;3.05;;
15192;SDS011;7697;51.630;7.484;2024-03-23T04:38:57;7.40;;;2.97;;
15192;SDS011;7697;51.630;7.484;2024-03-23T04:44:04;7.25;;;2.92;;
15192;SDS011;7697;51.630;7.484;2024-03-23T04:49:06;5.45;;;2.40;;
15192;SDS011;7697;51.630;7.484;2024-03-23T04:54:08;8.00;;;2.58;;
15192;SDS011;7697;51.630;7.484;2024-03-23T04:59:11;4.10;;;2.30;;
15192;SDS011;7697;51.630;7.484;2024-03-23T05:04:15;6.32;;;2.72;;
15192;SDS011;7697;51.630;7.484;2024-03-23T05:09:16;5.18;;;2.88;;
15192;SDS011;7697;51.630;7.484;2024-03-23T05:14:19;6.65;;;2.58;;
15192;SDS011;7697;51.630;7.484;2024-03-23T05:19:21;6.47;;;2.80;;
15192;SDS011;7697;51.630;7.484;2024-03-23T05:24:23;7.93;;;3.00;;
15192;SDS011;7697;51.630;7.484;2024-03-23T05:29:26;5.32;;;2.60;;
15192;SDS011;7697;51.630;7.484;2024-03-23T05:34:29;6.45;;;2.70;;
15192;SDS011;7697;51.630;7.484;2024-03-23T05:39:31;6.28;;;3.05;;
15192;SDS011;7697;51.630;7.484;2024-03-23T05:44:34;7.22;;;3.13;;
15192;SDS011;7697;51.630;7.484;2024-03-23T05:49:38;7.03;;;3.45;;
15192;SDS011;7697;51.630;7.484;2024-03-23T05:54:39;8.15;;;3.95;;
15192;SDS011;7697;51.630;7.484;2024-03-23T05:59:54;7.22;;;4.10;;
15192;SDS011;7697;51.630;7.484;2024-03-23T06:04:57;8.43;;;4.32;;
15192;SDS011;7697;51.630;7.484;2024-03-23T06:09:58;8.40;;;4.90;;
15192;SDS011;7697;51.630;7.484;2024-03-23T06:15:02;8.88;;;5.63;;
15192;SDS011;7697;51.630;7.484;2024-03-23T06:20:05;11.30;;;5.05;;
15192;SDS011;7697;51.630;7.484;2024-03-23T06:25:07;9.02;;;4.80;;
15192;SDS011;7697;51.630;7.484;2024-03-23T06:30:12;8.15;;;5.38;;
15192;SDS011;7697;51.630;7.484;2024-03-23T06:35:17;10.70;;;6.50;;
15192;SDS011;7697;51.630;7.484;2024-03-23T06:40:19;10.27;;;6.50;;
15192;SDS011;7697;51.630;7.484;2024-03-23T06:45:22;10.85;;;6.20;;
15192;SDS011;7697;51.630;7.484;2024-03-23T06:50:25;14.65;;;8.10;;
15192;SDS011;7697;51.630;7.484;2024-03-23T06:55:29;12.40;;;8.25;;
15192;SDS011;7697;51.630;7.484;2024-03-23T07:00:36;13.80;;;8.43;;
15192;SDS011;7697;51.630;7.484;2024-03-23T07:05:40;14.32;;;8.45;;
15192;SDS011;7697;51.630;7.484;2024-03-23T07:10:42;13.23;;;7.82;;
15192;SDS011;7697;51.630;7.484;2024-03-23T07:15:52;9.93;;;7.93;;
15192;SDS011;7697;51.630;7.484;2024-03-23T07:20:55;10.00;;;7.93;;
15192;SDS011;7697;51.630;7.484;2024-03-23T07:25:57;13.60;;;7.93;;
15192;SDS011;7697;51.630;7.484;2024-03-23T07:31:07;12.07;;;7.32;;
15192;SDS011;7697;51.630;7.484;2024-03-23T07:36:10;15.30;;;8.07;;
15192;SDS011;7697;51.630;7.484;2024-03-23T07:41:15;13.60;;;6.80;;
15192;SDS011;7697;51.630;7.484;2024-03-23T07:46:20;11.18;;;5.85;;
15192;SDS011;7697;51.630;7.484;2024-03-23T07:51:22;12.50;;;6.20;;
15192;SDS011;7697;51.630;7.484;2024-03-23T07:56:24;9.15;;;5.20;;
15192;SDS011;7697;51.630;7.484;2024-03-23T08:01:32;10.32;;;5.97;;
15192;SDS011;7697;51.630;7.484;2024-03-23T08:06:34;8.55;;;4.43;;
15192;SDS011;7697;51.630;7.484;2024-03-23T08:11:36;9.60;;;4.15;;
15192;SDS011;7697;51.630;7.484;2024-03-23T08:16:43;11.87;;;4.93;;
15192;SDS011;7697;51.630;7.484;2024-03-23T08:21:48;13.02;;;4.90;;
15192;SDS011;7697;51.630;7.484;2024-03-23T08:26:51;8.48;;;4.00;;
15192;SDS011;7697;51.630;7.484;2024-03-23T08:31:57;8.43;;;3.90;;
15192;SDS011;7697;51.630;7.484;2024-03-23T08:37:01;10.07;;;3.95;;
15192;SDS011;7697;51.630;7.484;2024-03-23T08:42:03;10.60;;;3.58;;
15192;SDS011;7697;51.630;7.484;2024-03-23T08:47:06;13.05;;;3.92;;
15192;SDS011;7697;51.630;7.484;2024-03-23T08:52:08;8.18;;;3.45;;
15192;SDS011;7697;51.630;7.484;2024-03-23T08:57:10;8.90;;;3.72;;
15192;SDS011;7697;51.630;7.484;2024-03-23T09:02:13;8.52;;;3.80;;
15192;SDS011;7697;51.630;7.484;2024-03-23T09:07:15;8.65;;;3.60;;
15192;SDS011;7697;51.630;7.484;2024-03-23T09:12:16;11.38;;;4.38;;
15192;SDS011;7697;51.630;7.484;2024-03-23T09:17:20;7.90;;;3.70;;
15192;SDS011;7697;51.630;7.484;2024-03-23T09:22:22;9.35;;;3.35;;
15192;SDS011;7697;51.630;7.484;2024-03-23T09:27:24;9.38;;;3.50;;
15192;SDS011;7697;51.630;7.484;2024-03-23T09:32:27;6.63;;;3.47;;
15192;SDS011;7697;51.630;7.484;2024-03-23T09:37:29;8.13;;;3.20;;
15192;SDS011;7697;51.630;7.484;2024-03-23T09:42:34;7.70;;;3.13;;
15192;SDS011;7697;51.630;7.484;2024-03-23T09:47:37;6.75;;;2.90;;
15192;SDS011;7697;51.630;7.484;2024-03-23T09:52:39;6.13;;;2.42;;
15192;SDS011;7697;51.630;7.484;2024-03-23T10:04:23;6.47;;;2.90;;
15192;SDS011;7697;51.630;7.484;2024-03-23T10:09:39;4.63;;;2.50;;
15192;SDS011;7697;51.630;7.484;2024-03-23T10:14:41;6.47;;;2.65;;
15192;SDS011;7697;51.630;7.484;2024-03-23T10:19:48;5.20;;;2.42;;
15192;SDS011;7697;51.630;7.484;2024-03-23T10:24:51;7.22;;;2.33;;
15192;SDS011;7697;51.630;7.484;2024-03-23T10:29:54;7.20;;;2.33;;
15192;SDS011;7697;51.630;7.484;2024-03-23T10:35:17;6.30;;;2.03;;
15192;SDS011;7697;51.630;7.484;2024-03-23T10:40:24;8.93;;;2.30;;
15192;SDS011;7697;51.630;7.484;2024-03-23T10:45:28;5.45;;;2.05;;
15192;SDS011;7697;51.630;7.484;2024-03-23T10:50:33;5.57;;;1.98;;
15192;SDS011;7697;51.630;7.484;2024-03-23T10:55:35;6.20;;;2.30;;
15192;SDS011;7697;51.630;7.484;2024-03-23T11:00:37;4.55;;;2.10;;
15192;SDS011;7697;51.630;7.484;2024-03-23T11:05:43;3.78;;;1.70;;
15192;SDS011;7697;51.630;7.484;2024-03-23T11:10:48;4.50;;;1.95;;
15192;SDS011;7697;51.630;7.484;2024-03-23T11:15:53;5.13;;;2.10;;
15192;SDS011;7697;51.630;7.484;2024-03-23T11:20:57;4.95;;;2.13;;
15192;SDS011;7697;51.630;7.484;2024-03-23T11:25:58;5.20;;;1.80;;
15192;SDS011;7697;51.630;7.484;2024-03-23T11:31:00;3.85;;;1.70;;
15192;SDS011;7697;51.630;7.484;2024-03-23T11:36:07;3.25;;;1.52;;
15192;SDS011;7697;51.630;7.484;2024-03-23T11:41:09;4.38;;;2.15;;
15192;SDS011;7697;51.630;7.484;2024-03-23T11:46:11;4.45;;;1.50;;
15192;SDS011;7697;51.630;7.484;2024-03-23T11:51:25;4.25;;;1.08;;
15192;SDS011;7697;51.630;7.484;2024-03-23T11:56:26;1.65;;;1.00;;
15192;SDS011;7697;51.630;7.484;2024-03-23T12:01:28;2.40;;;1.40;;
15192;SDS011;7697;51.630;7.484;2024-03-23T12:06:31;2.63;;;1.42;;
15192;SDS011;7697;51.630;7.484;2024-03-23T12:11:33;3.78;;;2.20;;
15192;SDS011;7697;51.630;7.484;2024-03-23T12:16:37;3.40;;;1.67;;
15192;SDS011;7697;51.630;7.484;2024-03-23T12:21:40;4.00;;;2.17;;
15192;SDS011;7697;51.630;7.484;2024-03-23T12:26:42;3.60;;;1.70;;
15192;SDS011;7697;51.630;7.484;2024-03-23T12:31:44;5.47;;;2.30;;
15192;SDS011;7697;51.630;7.484;2024-03-23T12:36:47;3.95;;;1.92;;
15192;SDS011;7697;51.630;7.484;2024-03-23T12:41:49;6.20;;;2.10;;
15192;SDS011;7697;51.630;7.484;2024-03-23T12:46:52;5.60;;;2.28;;
15192;SDS011;7697;51.630;7.484;2024-03-23T12:51:56;4.75;;;2.63;;
15192;SDS011;7697;51.630;7.484;2024-03-23T12:56:58;5.03;;;2.58;;
15192;SDS011;7697;51.630;7.484;2024-03-23T13:01:59;5.72;;;2.20;;
15192;SDS011;7697;51.630;7.484;2024-03-23T13:07:03;3.80;;;1.67;;
15192;SDS011;7697;51.630;7.484;2024-03-23T13:12:05;4.13;;;1.88;;
15192;SDS011;7697;51.630;7.484;2024-03-23T13:17:08;4.97;;;1.98;;
15192;SDS011;7697;51.630;7.484;2024-03-23T13:22:12;3.95;;;1.77;;
15192;SDS011;7697;51.630;7.484;2024-03-23T13:27:14;4.80;;;1.80;;
15192;SDS011;7697;51.630;7.484;2024-03-23T13:32:15;5.65;;;1.75;;
15192;SDS011;7697;51.630;7.484;2024-03-23T13:42:35;3.75;;;2.00;;
15192;SDS011;7697;51.630;7.484;2024-03-23T13:47:38;2.90;;;1.80;;
15192;SDS011;7697;51.630;7.484;2024-03-23T13:52:40;2.33;;;1.60;;
15192;SDS011;7697;51.630;7.484;2024-03-23T13:57:44;3.03;;;1.92;;
15192;SDS011;7697;51.630;7.484;2024-03-23T14:02:45;4.25;;;2.45;;
15192;SDS011;7697;51.630;7.484;2024-03-23T14:07:47;3.40;;;1.83;;
15192;SDS011;7697;51.630;7.484;2024-03-23T14:28:41;3.17;;;1.60;;
15192;SDS011;7697;51.630;7.484;2024-03-23T14:33:42;5.35;;;2.92;;
15192;SDS011;7697;51.630;7.484;2024-03-23T15:00:29;6.38;;;2.10;;
15192;SDS011;7697;51.630;7.484;2024-03-23T15:05:31;4.57;;;1.73;;
15192;SDS011;7697;51.630;7.484;2024-03-23T15:10:33;4.63;;;1.80;;
15192;SDS011;7697;51.630;7.484;2024-03-23T15:15:39;2.72;;;1.48;;
15192;SDS011;7697;51.630;7.484;2024-03-23T15:20:51;3.08;;;1.50;;
15192;SDS011;7697;51.630;7.484;2024-03-23T15:31:15;3.45;;;1.35;;
15192;SDS011;7697;51.630;7.484;2024-03-23T15:36:18;2.13;;;1.30;;
15192;SDS011;7697;51.630;7.484;2024-03-23T15:41:21;3.83;;;1.70;;
15192;SDS011;7697;51.630;7.484;2024-03-23T15:46:36;5.90;;;2.33;;
15192;SDS011;7697;51.630;7.484;2024-03-23T15:51:40;4.88;;;1.77;;
15192;SDS011;7697;51.630;7.484;2024-03-23T15:56:44;3.53;;;1.45;;
15192;SDS011;7697;51.630;7.484;2024-03-23T16:01:48;4.85;;;2.35;;
15192;SDS011;7697;51.630;7.484;2024-03-23T16:06:50;2.72;;;1.48;;
15192;SDS011;7697;51.630;7.484;2024-03-23T16:22:48;3.67;;;1.90;;
15192;SDS011;7697;51.630;7.484;2024-03-23T16:27:49;3.10;;;1.63;;
15192;SDS011;7697;51.630;7.484;2024-03-23T16:32:51;3.15;;;2.03;;
15192;SDS011;7697;51.630;7.484;2024-03-23T16:37:54;3.47;;;1.88;;
15192;SDS011;7697;51.630;7.484;2024-03-23T16:42:58;4.93;;;2.53;;
15192;SDS011;7697;51.630;7.484;2024-03-23T16:48:03;2.58;;;1.83;;
15192;SDS011;7697;51.630;7.484;2024-03-23T17:46:19;1.38;;;0.93;;
15192;SDS011;7697;51.630;7.484;2024-03-23T17:51:22;3.50;;;1.42;;
15192;SDS011;7697;51.630;7.484;2024-03-23T17:56:24;2.53;;;1.55;;
15192;SDS011;7697;51.630;7.484;2024-03-23T18:01:28;5.68;;;2.10;;
15192;SDS011;7697;51.630;7.484;2024-03-23T18:06:30;4.18;;;2.20;;
15192;SDS011;7697;51.630;7.484;2024-03-23T18:11:33;4.93;;;1.98;;
15192;SDS011;7697;51.630;7.484;2024-03-23T18:16:38;3.58;;;1.60;;
15192;SDS011;7697;51.630;7.484;2024-03-23T18:21:42;4.45;;;2.08;;
15192;SDS011;7697;51.630;7.484;2024-03-23T18:26:45;3.08;;;1.65;;
15192;SDS011;7697;51.630;7.484;2024-03-23T18:31:49;3.78;;;1.98;;
15192;SDS011;7697;51.630;7.484;2024-03-23T18:36:51;3.33;;;1.70;;
15192;SDS011;7697;51.630;7.484;2024-03-23T18:41:55;2.70;;;1.70;;
15192;SDS011;7697;51.630;7.484;2024-03-23T18:46:58;3.05;;;1.83;;
15192;SDS011;7697;51.630;7.484;2024-03-23T18:52:00;2.38;;;1.88;;
15192;SDS011;7697;51.630;7.484;2024-03-23T18:57:02;3.95;;;2.15;;
15192;SDS011;7697;51.630;7.484;2024-03-23T19:02:06;5.07;;;1.90;;
15192;SDS011;7697;51.630;7.484;2024-03-23T19:07:08;3.50;;;2.40;;
15192;SDS011;7697;51.630;7.484;2024-03-23T19:12:10;4.90;;;2.70;;
15192;SDS011;7697;51.630;7.484;2024-03-23T19:17:13;3.08;;;1.83;;
15192;SDS011;7697;51.630;7.484;2024-03-23T19:22:15;2.40;;;1.90;;
15192;SDS011;7697;51.630;7.484;2024-03-23T19:27:17;4.18;;;2.80;;
15192;SDS011;7697;51.630;7.484;2024-03-23T19:32:22;6.13;;;3.10;;
15192;SDS011;7697;51.630;7.484;2024-03-23T19:37:23;3.72;;;2.30;;
15192;SDS011;7697;51.630;7.484;2024-03-23T19:42:25;3.35;;;2.60;;
15192;SDS011;7697;51.630;7.484;2024-03-23T19:47:29;5.88;;;3.33;;
15192;SDS011;7697;51.630;7.484;2024-03-23T19:52:31;5.43;;;3.25;;
15192;SDS011;7697;51.630;7.484;2024-03-23T19:57:33;4.63;;;2.58;;
15192;SDS011;7697;51.630;7.484;2024-03-23T20:02:36;4.43;;;3.00;;
15192;SDS011;7697;51.630;7.484;2024-03-23T20:07:38;3.13;;;1.90;;
15192;SDS011;7697;51.630;7.484;2024-03-23T20:12:39;3.25;;;2.30;;
15192;SDS011;7697;51.630;7.484;2024-03-23T20:17:43;4.23;;;2.53;;
15192;SDS011;7697;51.630;7.484;2024-03-23T20:22:45;5.70;;;2.55;;
15192;SDS011;7697;51.630;7.484;2024-03-23T20:27:47;4.20;;;2.50;;
15192;SDS011;7697;51.630;7.484;2024-03-23T20:32:50;5.10;;;2.65;;
15192;SDS011;7697;51.630;7.484;2024-03-23T20:37:52;4.97;;;3.08;;
15192;SDS011;7697;51.630;7.484;2024-03-23T20:42:54;5.97;;;3.00;;
15192;SDS011;7697;51.630;7.484;2024-03-23T20:47:58;4.17;;;2.30;;
15192;SDS011;7697;51.630;7.484;2024-03-23T20:52:59;2.53;;;1.90;;
15192;SDS011;7697;51.630;7.484;2024-03-23T20:58:01;3.65;;;2.35;;
15192;SDS011;7697;51.630;7.484;2024-03-23T21:03:05;3.90;;;2.30;;
15192;SDS011;7697;51.630;7.484;2024-03-23T21:08:07;5.43;;;2.57;;
15192;SDS011;7697;51.630;7.484;2024-03-23T21:13:09;3.78;;;2.47;;
15192;SDS011;7697;51.630;7.484;2024-03-23T21:18:12;4.47;;;2.70;;
15192;SDS011;7697;51.630;7.484;2024-03-23T21:23:14;7.93;;;4.23;;
15192;SDS011;7697;51.630;7.484;2024-03-23T21:28:16;5.43;;;3.00;;
15192;SDS011;7697;51.630;7.484;2024-03-23T21:33:19;3.73;;;3.03;;
15192;SDS011;7697;51.630;7.484;2024-03-23T21:38:21;3.45;;;2.60;;
15192;SDS011;7697;51.630;7.484;2024-03-23T21:43:23;5.23;;;3.07;;
15192;SDS011;7697;51.630;7.484;2024-03-23T21:48:26;4.90;;;2.97;;
15192;SDS011;7697;51.630;7.484;2024-03-23T21:53:29;4.00;;;3.53;;
15192;SDS011;7697;51.630;7.484;2024-03-23T21:58:32;4.17;;;3.77;;
15192;SDS011;7697;51.630;7.484;2024-03-23T22:03:35;5.10;;;4.40;;
15192;SDS011;7697;51.630;7.484;2024-03-23T22:08:37;5.43;;;4.47;;
15192;SDS011;7697;51.630;7.484;2024-03-23T22:13:38;6.77;;;5.03;;
15192;SDS011;7697;51.630;7.484;2024-03-23T22:18:44;7.67;;;5.73;;
15192;SDS011;7697;51.630;7.484;2024-03-23T22:23:46;7.03;;;5.30;;
15192;SDS011;7697;51.630;7.484;2024-03-23T22:28:48;7.13;;;5.53;;
15192;SDS011;7697;51.630;7.484;2024-03-23T22:33:51;8.33;;;6.67;;
15192;SDS011;7697;51.630;7.484;2024-03-23T22:38:53;6.43;;;5.23;;
15192;SDS011;7697;51.630;7.484;2024-03-23T22:43:54;8.07;;;5.67;;
15192;SDS011;7697;51.630;7.484;2024-03-23T22:48:57;6.43;;;5.10;;
15192;SDS011;7697;51.630;7.484;2024-03-23T22:53:59;9.50;;;6.33;;
15192;SDS011;7697;51.630;7.484;2024-03-23T22:59:01;6.67;;;5.47;;
15192;SDS011;7697;51.630;7.484;2024-03-23T23:04:04;10.37;;;6.30;;
15192;SDS011;7697;51.630;7.484;2024-03-23T23:09:06;6.73;;;5.33;;
15192;SDS011;7697;51.630;7.484;2024-03-23T23:14:08;9.87;;;6.03;;
15192;SDS011;7697;51.630;7.484;2024-03-23T23:19:11;7.60;;;4.87;;
15192;SDS011;7697;51.630;7.484;2024-03-23T23:24:14;9.27;;;5.47;;
15192;SDS011;7697;51.630;7.484;2024-03-23T23:29:16;7.30;;;4.43;;
15192;SDS011;7697;51.630;7.484;2024-03-23T23:34:20;6.80;;;4.83;;
15192;SDS011;7697;51.630;7.484;2024-03-23T23:39:21;6.60;;;3.70;;
15192;SDS011;7697;51.630;7.484;2024-03-23T23:44:23;5.57;;;3.23;;
15192;SDS011;7697;51.630;7.484;2024-03-23T23:49:26;4.80;;;3.30;;
15192;SDS011;7697;51.630;7.484;2024-03-23T23:54:28;5.82;;;2.80;;
15192;SDS011;7697;51.630;7.484;2024-03-23T23:59:30;5.43;;;3.40;;
